createdAt,value
2022-11-05T00:00:49.893Z,989.99
2022-11-05T00:01:48.960Z,990.00
2022-11-05T00:02:48.885Z,989.99
2022-11-05T00:03:48.930Z,990.01
2022-11-05T00:04:48.869Z,989.98
2022-11-05T00:05:48.865Z,990.00
2022-11-05T00:06:48.852Z,990.03
2022-11-05T00:07:48.857Z,990.07
2022-11-05T00:08:48.861Z,990.05
2022-11-05T00:09:48.850Z,990.08
2022-11-05T00:10:48.817Z,990.12
2022-11-05T00:11:48.806Z,990.14
2022-11-05T00:12:48.809Z,990.13
2022-11-05T00:13:48.814Z,990.11
2022-11-05T00:14:48.794Z,990.09
2022-11-05T00:15:48.779Z,990.15
2022-11-05T00:16:48.769Z,990.12
2022-11-05T00:17:48.764Z,990.13
2022-11-05T00:18:48.774Z,990.12
2022-11-05T00:19:48.761Z,990.14
2022-11-05T00:20:48.762Z,990.19
2022-11-05T00:21:48.743Z,990.18
2022-11-05T00:22:48.745Z,990.20
2022-11-05T00:23:48.733Z,990.19
2022-11-05T00:24:48.742Z,990.17
2022-11-05T00:25:48.704Z,990.16
2022-11-05T00:26:48.710Z,990.13
2022-11-05T00:27:48.707Z,990.20
2022-11-05T00:28:48.689Z,990.21
2022-11-05T00:29:48.721Z,990.27
2022-11-05T00:30:48.694Z,990.21
2022-11-05T00:31:48.677Z,990.23
2022-11-05T00:32:48.662Z,990.19
2022-11-05T00:33:48.657Z,990.27
2022-11-05T00:34:48.645Z,990.30
2022-11-05T00:35:48.649Z,990.34
2022-11-05T00:36:48.629Z,990.32
2022-11-05T00:37:50.405Z,990.30
2022-11-05T00:38:49.625Z,990.38
2022-11-05T00:39:48.614Z,990.32
2022-11-05T00:40:48.646Z,990.32
2022-11-05T00:41:48.615Z,990.35
2022-11-05T00:42:48.616Z,990.34
2022-11-05T00:43:48.596Z,990.37
2022-11-05T00:44:48.593Z,990.31
2022-11-05T00:45:48.591Z,990.35
2022-11-05T00:46:48.580Z,990.37
2022-11-05T00:47:48.574Z,990.36
2022-11-05T00:48:48.571Z,990.41
2022-11-05T00:49:48.560Z,990.36
2022-11-05T00:50:48.546Z,990.35
2022-11-05T00:51:48.543Z,990.40
2022-11-05T00:52:48.533Z,990.40
2022-11-05T00:53:48.532Z,990.34
2022-11-05T00:54:48.513Z,990.38
2022-11-05T00:55:48.499Z,990.39
2022-11-05T00:56:48.801Z,990.38
2022-11-05T00:57:48.844Z,990.35
2022-11-05T00:58:48.482Z,990.36
2022-11-05T00:59:48.494Z,990.38
2022-11-05T01:00:48.500Z,990.34
2022-11-05T01:01:48.627Z,990.37
2022-11-05T01:02:48.522Z,990.42
2022-11-05T01:03:51.621Z,990.45
2022-11-05T01:04:49.440Z,990.41
2022-11-05T01:05:48.433Z,990.46
2022-11-05T01:06:48.416Z,990.49
2022-11-05T01:07:48.436Z,990.49
2022-11-05T01:08:48.408Z,990.59
2022-11-05T01:09:48.418Z,990.57
2022-11-05T01:10:48.400Z,990.58
2022-11-05T01:11:48.384Z,990.64
2022-11-05T01:12:48.396Z,990.57
2022-11-05T01:13:48.365Z,990.60
2022-11-05T01:14:48.527Z,990.55
2022-11-05T01:15:48.373Z,990.60
2022-11-05T01:16:48.344Z,990.56
2022-11-05T01:17:48.359Z,990.59
2022-11-05T01:18:48.333Z,990.59
2022-11-05T01:19:48.329Z,990.58
2022-11-05T01:20:48.327Z,990.66
2022-11-05T01:21:48.324Z,990.65
2022-11-05T01:22:48.309Z,990.66
2022-11-05T01:23:48.303Z,990.73
2022-11-05T01:24:48.296Z,990.71
2022-11-05T01:25:48.287Z,990.69
2022-11-05T01:26:48.290Z,990.74
2022-11-05T01:27:48.280Z,990.71
2022-11-05T01:28:48.335Z,990.67
2022-11-05T01:29:48.262Z,990.73
2022-11-05T01:30:48.253Z,990.67
2022-11-05T01:31:48.268Z,990.72
2022-11-05T01:32:48.239Z,990.73
2022-11-05T01:33:48.229Z,990.79
2022-11-05T01:34:48.277Z,990.68
2022-11-05T01:35:48.222Z,990.73
2022-11-05T01:36:48.239Z,990.67
2022-11-05T01:37:48.196Z,990.71
2022-11-05T01:38:48.192Z,990.74
2022-11-05T01:39:48.221Z,990.75
2022-11-05T01:40:48.207Z,990.75
2022-11-05T01:41:48.351Z,990.79
2022-11-05T01:42:48.171Z,990.78
2022-11-05T01:43:48.149Z,990.79
2022-11-05T01:44:48.140Z,990.81
2022-11-05T01:45:48.135Z,990.77
2022-11-05T01:46:48.132Z,990.78
2022-11-05T01:47:48.128Z,990.82
2022-11-05T01:48:48.124Z,990.85
2022-11-05T01:49:48.093Z,990.79
2022-11-05T01:50:48.104Z,990.79
2022-11-05T01:51:48.202Z,990.82
2022-11-05T01:52:48.082Z,990.87
2022-11-05T01:53:48.080Z,990.82
2022-11-05T01:54:48.076Z,990.82
2022-11-05T01:55:48.068Z,990.88
2022-11-05T01:56:48.056Z,990.86
2022-11-05T01:57:48.052Z,990.86
2022-11-05T01:58:48.052Z,990.86
2022-11-05T01:59:48.040Z,990.88
2022-11-05T02:00:48.076Z,990.90
2022-11-05T02:01:48.231Z,990.88
2022-11-05T02:02:48.170Z,990.94
2022-11-05T02:03:48.035Z,990.95
2022-11-05T02:04:48.004Z,990.91
2022-11-05T02:05:47.996Z,990.97
2022-11-05T02:06:47.991Z,990.99
2022-11-05T02:07:47.992Z,991.08
2022-11-05T02:08:47.991Z,991.06
2022-11-05T02:09:47.973Z,990.99
2022-11-05T02:10:47.959Z,991.02
2022-11-05T02:11:47.971Z,991.05
2022-11-05T02:12:47.939Z,991.12
2022-11-05T02:13:47.971Z,991.10
2022-11-05T02:14:47.929Z,991.06
2022-11-05T02:15:47.920Z,991.08
2022-11-05T02:16:47.912Z,991.09
2022-11-05T02:17:47.908Z,991.06
2022-11-05T02:18:47.900Z,991.10
2022-11-05T02:19:47.908Z,991.06
2022-11-05T02:20:51.953Z,991.06
2022-11-05T02:21:48.892Z,991.09
2022-11-05T02:22:47.908Z,991.08
2022-11-05T02:23:47.948Z,991.06
2022-11-05T02:24:47.872Z,991.07
2022-11-05T02:25:47.851Z,991.13
2022-11-05T02:26:47.896Z,991.08
2022-11-05T02:27:47.821Z,991.10
2022-11-05T02:28:47.823Z,991.11
2022-11-05T02:29:47.917Z,991.10
2022-11-05T02:30:47.814Z,991.13
2022-11-05T02:31:47.811Z,991.09
2022-11-05T02:32:47.820Z,991.13
2022-11-05T02:33:47.834Z,991.14
2022-11-05T02:34:47.784Z,991.15
2022-11-05T02:35:47.772Z,991.18
2022-11-05T02:36:47.780Z,991.19
2022-11-05T02:37:47.757Z,991.20
2022-11-05T02:38:47.761Z,991.22
2022-11-05T02:39:47.768Z,991.26
2022-11-05T02:40:47.751Z,991.29
2022-11-05T02:41:47.728Z,991.26
2022-11-05T02:42:47.715Z,991.31
2022-11-05T02:43:47.720Z,991.28
2022-11-05T02:44:47.738Z,991.31
2022-11-05T02:45:47.716Z,991.26
2022-11-05T02:46:47.703Z,991.31
2022-11-05T02:47:47.692Z,991.31
2022-11-05T02:48:47.679Z,991.31
2022-11-05T02:49:47.676Z,991.29
2022-11-05T02:50:47.660Z,991.30
2022-11-05T02:51:47.663Z,991.33
2022-11-05T02:52:47.646Z,991.37
2022-11-05T02:53:47.737Z,991.33
2022-11-05T02:54:47.638Z,991.32
2022-11-05T02:55:47.635Z,991.32
2022-11-05T02:56:47.707Z,991.27
2022-11-05T02:57:47.656Z,991.28
2022-11-05T02:58:47.615Z,991.24
2022-11-05T02:59:47.621Z,991.27
2022-11-05T03:00:47.638Z,991.32
2022-11-05T03:01:47.753Z,991.31
2022-11-05T03:02:47.869Z,991.28
2022-11-05T03:03:47.592Z,991.25
2022-11-05T03:04:47.571Z,991.32
2022-11-05T03:05:47.568Z,991.27
2022-11-05T03:06:47.569Z,991.29
2022-11-05T03:07:47.543Z,991.27
2022-11-05T03:08:47.573Z,991.32
2022-11-05T03:09:47.549Z,991.34
2022-11-05T03:10:47.540Z,991.32
2022-11-05T03:11:47.543Z,991.24
2022-11-05T03:12:47.537Z,991.29
2022-11-05T03:13:47.512Z,991.35
2022-11-05T03:14:47.510Z,991.36
2022-11-05T03:15:47.531Z,991.32
2022-11-05T03:16:47.511Z,991.25
2022-11-05T03:17:47.475Z,991.24
2022-11-05T03:18:47.477Z,991.31
2022-11-05T03:19:47.468Z,991.23
2022-11-05T03:20:47.463Z,991.25
2022-11-05T03:21:47.481Z,991.25
2022-11-05T03:22:47.442Z,991.26
2022-11-05T03:23:47.441Z,991.31
2022-11-05T03:24:47.430Z,991.31
2022-11-05T03:25:47.435Z,991.36
2022-11-05T03:26:47.415Z,991.37
2022-11-05T03:27:47.507Z,991.32
2022-11-05T03:28:47.399Z,991.36
2022-11-05T03:29:47.391Z,991.42
2022-11-05T03:30:47.383Z,991.40
2022-11-05T03:31:47.382Z,991.39
2022-11-05T03:32:47.383Z,991.41
2022-11-05T03:33:47.368Z,991.42
2022-11-05T03:34:47.371Z,991.43
2022-11-05T03:35:47.352Z,991.40
2022-11-05T03:36:47.375Z,991.45
2022-11-05T03:37:47.351Z,991.37
2022-11-05T03:38:47.331Z,991.45
2022-11-05T03:39:47.319Z,991.46
2022-11-05T03:40:47.376Z,991.45
2022-11-05T03:41:47.326Z,991.48
2022-11-05T03:42:48.310Z,991.50
2022-11-05T03:43:47.307Z,991.53
2022-11-05T03:44:47.288Z,991.56
2022-11-05T03:45:47.286Z,991.51
2022-11-05T03:46:47.281Z,991.52
2022-11-05T03:47:47.279Z,991.53
2022-11-05T03:48:47.340Z,991.55
2022-11-05T03:49:47.246Z,991.61
2022-11-05T03:50:47.240Z,991.60
2022-11-05T03:51:47.231Z,991.64
2022-11-05T03:52:47.243Z,991.64
2022-11-05T03:53:47.213Z,991.65
2022-11-05T03:54:47.232Z,991.60
2022-11-05T03:55:47.213Z,991.65
2022-11-05T03:56:47.197Z,991.59
2022-11-05T03:57:47.224Z,991.64
2022-11-05T03:58:47.179Z,991.66
2022-11-05T03:59:47.178Z,991.62
2022-11-05T04:00:47.173Z,991.63
2022-11-05T04:01:47.197Z,991.73
2022-11-05T04:02:47.350Z,991.65
2022-11-05T04:03:47.299Z,991.61
2022-11-05T04:04:47.135Z,991.75
2022-11-05T04:05:47.133Z,991.70
2022-11-05T04:06:47.127Z,991.72
2022-11-05T04:07:47.119Z,991.74
2022-11-05T04:08:47.123Z,991.79
2022-11-05T04:09:47.129Z,991.77
2022-11-05T04:10:47.099Z,991.82
2022-11-05T04:11:47.093Z,991.75
2022-11-05T04:12:47.088Z,991.77
2022-11-05T04:13:47.129Z,991.82
2022-11-05T04:14:47.062Z,991.83
2022-11-05T04:15:47.068Z,991.84
2022-11-05T04:16:47.051Z,991.86
2022-11-05T04:17:47.045Z,991.88
2022-11-05T04:18:47.048Z,991.85
2022-11-05T04:19:47.035Z,991.85
2022-11-05T04:20:47.019Z,991.87
2022-11-05T04:21:47.011Z,991.92
2022-11-05T04:22:47.006Z,991.96
2022-11-05T04:23:47.015Z,992.01
2022-11-05T04:24:46.988Z,991.94
2022-11-05T04:25:46.991Z,992.02
2022-11-05T04:26:46.971Z,992.00
2022-11-05T04:27:46.968Z,991.96
2022-11-05T04:28:46.975Z,992.06
2022-11-05T04:29:46.976Z,992.06
2022-11-05T04:30:46.953Z,992.04
2022-11-05T04:31:46.950Z,992.01
2022-11-05T04:32:46.935Z,992.05
2022-11-05T04:33:46.930Z,992.10
2022-11-05T04:34:46.943Z,992.04
2022-11-05T04:35:46.925Z,992.07
2022-11-05T04:36:46.934Z,992.02
2022-11-05T04:37:46.894Z,992.05
2022-11-05T04:38:46.912Z,992.07
2022-11-05T04:39:46.924Z,992.17
2022-11-05T04:40:46.899Z,992.11
2022-11-05T04:41:46.867Z,992.15
2022-11-05T04:42:46.872Z,992.12
2022-11-05T04:43:46.877Z,992.13
2022-11-05T04:44:46.859Z,992.14
2022-11-05T04:45:46.984Z,992.07
2022-11-05T04:46:46.849Z,992.11
2022-11-05T04:47:46.843Z,992.09
2022-11-05T04:48:46.834Z,992.09
2022-11-05T04:49:46.834Z,992.10
2022-11-05T04:50:46.818Z,992.13
2022-11-05T04:51:46.813Z,992.09
2022-11-05T04:52:46.798Z,992.12
2022-11-05T04:53:46.786Z,992.14
2022-11-05T04:54:46.807Z,992.20
2022-11-05T04:55:46.790Z,992.15
2022-11-05T04:56:46.778Z,992.16
2022-11-05T04:57:46.762Z,992.16
2022-11-05T04:58:46.763Z,992.13
2022-11-05T04:59:46.761Z,992.21
2022-11-05T05:00:46.947Z,992.24
2022-11-05T05:01:46.791Z,992.17
2022-11-05T05:02:46.744Z,992.21
2022-11-05T05:03:46.737Z,992.20
2022-11-05T05:04:46.741Z,992.25
2022-11-05T05:05:46.724Z,992.28
2022-11-05T05:06:46.709Z,992.26
2022-11-05T05:07:46.701Z,992.26
2022-11-05T05:08:46.713Z,992.34
2022-11-05T05:09:46.709Z,992.29
2022-11-05T05:10:46.704Z,992.28
2022-11-05T05:11:46.663Z,992.33
2022-11-05T05:12:46.666Z,992.31
2022-11-05T05:13:46.646Z,992.44
2022-11-05T05:14:46.644Z,992.40
2022-11-05T05:15:46.648Z,992.43
2022-11-05T05:16:46.624Z,992.47
2022-11-05T05:17:46.722Z,992.41
2022-11-05T05:18:46.734Z,992.41
2022-11-05T05:19:46.636Z,992.47
2022-11-05T05:20:46.612Z,992.49
2022-11-05T05:21:46.617Z,992.47
2022-11-05T05:22:46.576Z,992.47
2022-11-05T05:23:46.581Z,992.45
2022-11-05T05:24:52.403Z,992.47
2022-11-05T05:25:48.583Z,992.51
2022-11-05T05:26:46.566Z,992.50
2022-11-05T05:27:46.557Z,992.49
2022-11-05T05:28:46.555Z,992.52
2022-11-05T05:29:46.543Z,992.48
2022-11-05T05:30:46.540Z,992.49
2022-11-05T05:31:46.531Z,992.51
2022-11-05T05:32:46.519Z,992.53
2022-11-05T05:33:46.516Z,992.50
2022-11-05T05:34:46.518Z,992.50
2022-11-05T05:35:46.491Z,992.48
2022-11-05T05:36:46.491Z,992.46
2022-11-05T05:37:46.491Z,992.43
2022-11-05T05:38:46.485Z,992.49
2022-11-05T05:39:46.482Z,992.48
2022-11-05T05:40:46.469Z,992.48
2022-11-05T05:41:46.458Z,992.48
2022-11-05T05:42:46.450Z,992.44
2022-11-05T05:43:46.438Z,992.45
2022-11-05T05:44:46.441Z,992.51
2022-11-05T05:45:46.453Z,992.52
2022-11-05T05:46:46.422Z,992.52
2022-11-05T05:47:46.410Z,992.58
2022-11-05T05:48:46.397Z,992.60
2022-11-05T05:49:46.394Z,992.66
2022-11-05T05:50:46.414Z,992.65
2022-11-05T05:51:46.389Z,992.64
2022-11-05T05:52:46.384Z,992.66
2022-11-05T05:53:46.368Z,992.70
2022-11-05T05:54:46.374Z,992.68
2022-11-05T05:55:46.377Z,992.67
2022-11-05T05:56:46.354Z,992.75
2022-11-05T05:57:46.341Z,992.72
2022-11-05T05:58:46.335Z,992.77
2022-11-05T05:59:46.360Z,992.76
2022-11-05T06:00:46.339Z,992.74
2022-11-05T06:01:46.443Z,992.77
2022-11-05T06:02:46.454Z,992.76
2022-11-05T06:03:46.301Z,992.85
2022-11-05T06:04:46.305Z,992.88
2022-11-05T06:05:46.293Z,992.93
2022-11-05T06:06:46.313Z,992.96
2022-11-05T06:07:46.278Z,992.93
2022-11-05T06:08:46.269Z,992.99
2022-11-05T06:09:46.270Z,993.02
2022-11-05T06:10:46.290Z,992.96
2022-11-05T06:11:46.250Z,992.98
2022-11-05T06:12:46.254Z,993.00
2022-11-05T06:13:46.237Z,993.07
2022-11-05T06:14:46.234Z,993.07
2022-11-05T06:15:46.221Z,993.02
2022-11-05T06:16:46.216Z,993.07
2022-11-05T06:17:46.231Z,993.06
2022-11-05T06:18:46.207Z,993.08
2022-11-05T06:19:46.200Z,993.13
2022-11-05T06:20:46.190Z,993.07
2022-11-05T06:21:46.186Z,993.07
2022-11-05T06:22:46.171Z,993.10
2022-11-05T06:23:46.185Z,993.09
2022-11-05T06:24:46.161Z,993.11
2022-11-05T06:25:46.162Z,993.10
2022-11-05T06:26:46.164Z,993.09
2022-11-05T06:27:46.153Z,993.09
2022-11-05T06:28:46.157Z,993.11
2022-11-05T06:29:46.146Z,993.11
2022-11-05T06:30:46.122Z,993.12
2022-11-05T06:31:46.122Z,993.10
2022-11-05T06:32:46.119Z,993.10
2022-11-05T06:33:46.108Z,993.13
2022-11-05T06:34:46.096Z,993.15
2022-11-05T06:35:46.092Z,993.16
2022-11-05T06:36:46.088Z,993.18
2022-11-05T06:37:46.096Z,993.17
2022-11-05T06:38:46.085Z,993.24
2022-11-05T06:39:46.055Z,993.23
2022-11-05T06:40:46.056Z,993.27
2022-11-05T06:42:11.820Z,993.28
2022-11-05T06:42:48.031Z,993.28
2022-11-05T06:43:46.040Z,993.25
2022-11-05T06:44:46.047Z,993.27
2022-11-05T06:45:46.029Z,993.23
2022-11-05T06:46:48.669Z,993.30
2022-11-05T06:47:47.019Z,993.31
2022-11-05T06:48:46.015Z,993.35
2022-11-05T06:49:45.999Z,993.35
2022-11-05T06:50:45.995Z,993.36
2022-11-05T06:51:45.976Z,993.36
2022-11-05T06:52:45.984Z,993.41
2022-11-05T06:53:46.007Z,993.39
2022-11-05T06:54:45.963Z,993.42
2022-11-05T06:55:45.959Z,993.48
2022-11-05T06:56:45.955Z,993.51
2022-11-05T06:57:45.947Z,993.53
2022-11-05T06:58:45.947Z,993.47
2022-11-05T06:59:45.934Z,993.51
2022-11-05T07:00:46.002Z,993.52
2022-11-05T07:01:46.001Z,993.46
2022-11-05T07:02:45.923Z,993.46
2022-11-05T07:03:45.916Z,993.60
2022-11-05T07:04:45.916Z,993.56
2022-11-05T07:05:45.905Z,993.49
2022-11-05T07:06:45.890Z,993.54
2022-11-05T07:07:45.885Z,993.49
2022-11-05T07:08:45.880Z,993.51
2022-11-05T07:09:45.880Z,993.48
2022-11-05T07:10:45.888Z,993.52
2022-11-05T07:11:45.873Z,993.51
2022-11-05T07:12:45.850Z,993.58
2022-11-05T07:13:45.831Z,993.48
2022-11-05T07:14:45.836Z,993.49
2022-11-05T07:15:45.816Z,993.45
2022-11-05T07:16:45.837Z,993.50
2022-11-05T07:17:45.813Z,993.45
2022-11-05T07:18:45.808Z,993.49
2022-11-05T07:19:45.792Z,993.47
2022-11-05T07:20:45.790Z,993.55
2022-11-05T07:21:45.781Z,993.54
2022-11-05T07:22:45.792Z,993.52
2022-11-05T07:23:45.760Z,993.54
2022-11-05T07:24:45.747Z,993.54
2022-11-05T07:25:45.749Z,993.57
2022-11-05T07:26:45.741Z,993.62
2022-11-05T07:27:45.750Z,993.61
2022-11-05T07:28:45.740Z,993.62
2022-11-05T07:29:45.716Z,993.59
2022-11-05T07:30:45.739Z,993.63
2022-11-05T07:31:45.713Z,993.68
2022-11-05T07:32:45.703Z,993.66
2022-11-05T07:33:45.705Z,993.75
2022-11-05T07:34:45.712Z,993.69
2022-11-05T07:35:45.706Z,993.71
2022-11-05T07:36:45.685Z,993.74
2022-11-05T07:37:45.677Z,993.80
2022-11-05T07:38:45.689Z,993.75
2022-11-05T07:39:45.661Z,993.68
2022-11-05T07:40:45.648Z,993.71
2022-11-05T07:41:45.650Z,993.75
2022-11-05T07:42:45.635Z,993.70
2022-11-05T07:43:45.690Z,993.71
2022-11-05T07:44:45.640Z,993.76
2022-11-05T07:45:45.629Z,993.78
2022-11-05T07:46:45.606Z,993.69
2022-11-05T07:47:45.607Z,993.62
2022-11-05T07:48:45.593Z,993.69
2022-11-05T07:49:45.627Z,993.81
2022-11-05T07:50:45.583Z,993.81
2022-11-05T07:51:45.562Z,993.84
2022-11-05T07:52:46.566Z,993.76
2022-11-05T07:53:45.827Z,993.77
2022-11-05T07:54:45.597Z,993.81
2022-11-05T07:55:45.549Z,993.88
2022-11-05T07:56:45.538Z,993.88
2022-11-05T07:57:45.530Z,993.91
2022-11-05T07:58:45.522Z,993.96
2022-11-05T07:59:45.525Z,993.93
2022-11-05T08:00:45.643Z,993.91
2022-11-05T08:01:45.659Z,994.03
2022-11-05T08:02:45.743Z,994.01
2022-11-05T08:03:45.541Z,993.99
2022-11-05T08:04:45.489Z,993.96
2022-11-05T08:05:45.494Z,993.93
2022-11-05T08:06:45.486Z,993.98
2022-11-05T08:07:45.469Z,994.02
2022-11-05T08:08:45.457Z,994.01
2022-11-05T08:09:45.461Z,994.02
2022-11-05T08:10:45.466Z,994.02
2022-11-05T08:11:45.446Z,994.03
2022-11-05T08:12:45.437Z,994.17
2022-11-05T08:13:45.441Z,994.09
2022-11-05T08:14:45.442Z,994.11
2022-11-05T08:15:45.407Z,994.13
2022-11-05T08:16:45.404Z,994.15
2022-11-05T08:17:45.402Z,994.16
2022-11-05T08:18:45.398Z,994.20
2022-11-05T08:19:45.371Z,994.20
2022-11-05T08:20:45.369Z,994.21
2022-11-05T08:21:45.370Z,994.23
2022-11-05T08:22:45.352Z,994.27
2022-11-05T08:23:45.350Z,994.27
2022-11-05T08:24:45.347Z,994.23
2022-11-05T08:25:45.333Z,994.24
2022-11-05T08:26:45.338Z,994.21
2022-11-05T08:27:45.322Z,994.22
2022-11-05T08:28:45.311Z,994.25
2022-11-05T08:29:45.349Z,994.25
2022-11-05T08:30:45.297Z,994.20
2022-11-05T08:31:45.353Z,994.28
2022-11-05T08:32:45.286Z,994.24
2022-11-05T08:33:45.277Z,994.26
2022-11-05T08:34:45.270Z,994.17
2022-11-05T08:35:45.263Z,994.19
2022-11-05T08:36:45.257Z,994.22
2022-11-05T08:37:45.263Z,994.26
2022-11-05T08:38:45.253Z,994.29
2022-11-05T08:39:45.249Z,994.30
2022-11-05T08:40:45.298Z,994.23
2022-11-05T08:41:45.233Z,994.26
2022-11-05T08:42:45.218Z,994.27
2022-11-05T08:43:45.210Z,994.31
2022-11-05T08:44:45.199Z,994.31
2022-11-05T08:45:45.199Z,994.33
2022-11-05T08:46:45.197Z,994.31
2022-11-05T08:47:45.195Z,994.14
2022-11-05T08:48:45.179Z,994.31
2022-11-05T08:49:45.175Z,994.30
2022-11-05T08:50:46.175Z,994.40
2022-11-05T08:51:45.178Z,994.35
2022-11-05T08:52:45.151Z,994.33
2022-11-05T08:53:45.143Z,994.44
2022-11-05T08:54:45.140Z,994.34
2022-11-05T08:55:45.159Z,994.38
2022-11-05T08:56:45.134Z,994.38
2022-11-05T08:57:45.127Z,994.41
2022-11-05T08:58:45.122Z,994.41
2022-11-05T08:59:45.119Z,994.43
2022-11-05T09:00:45.190Z,994.44
2022-11-05T09:01:45.263Z,994.45
2022-11-05T09:02:45.150Z,994.40
2022-11-05T09:03:45.089Z,994.37
2022-11-05T09:04:45.084Z,994.37
2022-11-05T09:05:45.087Z,994.39
2022-11-05T09:06:45.085Z,994.40
2022-11-05T09:07:45.058Z,994.42
2022-11-05T09:08:45.051Z,994.41
2022-11-05T09:09:45.035Z,994.43
2022-11-05T09:10:45.027Z,994.49
2022-11-05T09:12:10.611Z,994.47
2022-11-05T09:12:47.051Z,994.49
2022-11-05T09:13:45.086Z,994.48
2022-11-05T09:14:45.035Z,994.47
2022-11-05T09:15:45.000Z,994.44
2022-11-05T09:16:44.985Z,994.55
2022-11-05T09:17:45.002Z,994.50
2022-11-05T09:18:44.994Z,994.52
2022-11-05T09:19:45.675Z,994.54
2022-11-05T09:20:45.669Z,994.56
2022-11-05T09:21:44.958Z,994.54
2022-11-05T09:22:44.958Z,994.52
2022-11-05T09:23:44.993Z,994.51
2022-11-05T09:24:44.950Z,994.51
2022-11-05T09:25:44.960Z,994.54
2022-11-05T09:26:44.924Z,994.52
2022-11-05T09:27:44.938Z,994.52
2022-11-05T09:28:44.941Z,994.51
2022-11-05T09:29:44.921Z,994.52
2022-11-05T09:30:44.924Z,994.47
2022-11-05T09:31:44.959Z,994.50
2022-11-05T09:32:44.916Z,994.47
2022-11-05T09:33:44.949Z,994.45
2022-11-05T09:34:44.971Z,994.50
2022-11-05T09:35:44.869Z,994.56
2022-11-05T09:36:44.870Z,994.45
2022-11-05T09:37:44.858Z,994.49
2022-11-05T09:38:44.889Z,994.45
2022-11-05T09:39:44.860Z,994.43
2022-11-05T09:40:44.866Z,994.40
2022-11-05T09:41:44.842Z,994.41
2022-11-05T09:42:44.829Z,994.44
2022-11-05T09:43:44.843Z,994.40
2022-11-05T09:44:44.806Z,994.49
2022-11-05T09:45:45.805Z,994.52
2022-11-05T09:46:44.808Z,994.48
2022-11-05T09:47:44.801Z,994.54
2022-11-05T09:48:44.776Z,994.53
2022-11-05T09:49:45.781Z,994.48
2022-11-05T09:50:44.772Z,994.53
2022-11-05T09:51:44.776Z,994.51
2022-11-05T09:52:44.765Z,994.47
2022-11-05T09:53:44.753Z,994.51
2022-11-05T09:54:44.748Z,994.49
2022-11-05T09:55:44.745Z,994.46
2022-11-05T09:56:44.870Z,994.42
2022-11-05T09:57:44.732Z,994.38
2022-11-05T09:58:44.720Z,994.42
2022-11-05T09:59:44.724Z,994.42
2022-11-05T10:00:44.739Z,994.39
2022-11-05T10:01:44.842Z,994.43
2022-11-05T10:02:44.720Z,994.44
2022-11-05T10:03:44.766Z,994.44
2022-11-05T10:04:44.677Z,994.41
2022-11-05T10:05:44.842Z,994.40
2022-11-05T10:06:44.665Z,994.26
2022-11-05T10:07:44.697Z,994.40
2022-11-05T10:08:44.660Z,994.39
2022-11-05T10:09:44.658Z,994.41
2022-11-05T10:10:44.646Z,994.44
2022-11-05T10:11:44.648Z,994.43
2022-11-05T10:12:44.648Z,994.37
2022-11-05T10:13:44.631Z,994.38
2022-11-05T10:14:44.628Z,994.42
2022-11-05T10:15:44.612Z,994.34
2022-11-05T10:16:44.613Z,994.36
2022-11-05T10:17:44.641Z,994.43
2022-11-05T10:18:44.683Z,994.33
2022-11-05T10:19:44.592Z,994.29
2022-11-05T10:20:44.596Z,994.38
2022-11-05T10:22:05.441Z,994.25
2022-11-05T10:22:49.497Z,994.35
2022-11-05T10:23:45.579Z,994.36
2022-11-05T10:24:44.576Z,994.40
2022-11-05T10:25:44.565Z,994.41
2022-11-05T10:26:44.571Z,994.41
2022-11-05T10:27:44.568Z,994.38
2022-11-05T10:28:44.548Z,994.26
2022-11-05T10:29:44.552Z,994.68
2022-11-05T10:30:44.548Z,994.67
2022-11-05T10:31:44.528Z,994.62
2022-11-05T10:32:44.532Z,994.64
2022-11-05T10:33:44.548Z,994.57
2022-11-05T10:34:44.517Z,994.59
2022-11-05T10:35:44.625Z,994.54
2022-11-05T10:36:44.531Z,994.54
2022-11-05T10:37:44.504Z,994.50
2022-11-05T10:38:44.521Z,994.18
2022-11-05T10:39:45.134Z,994.67
2022-11-05T10:40:44.483Z,994.64
2022-11-05T10:41:44.476Z,994.54
2022-11-05T10:42:44.486Z,994.53
2022-11-05T10:43:44.477Z,994.57
2022-11-05T10:44:44.484Z,994.56
2022-11-05T10:45:44.477Z,994.52
2022-11-05T10:46:44.523Z,994.44
2022-11-05T10:47:44.454Z,994.48
2022-11-05T10:48:44.450Z,994.53
2022-11-05T10:49:44.441Z,994.48
2022-11-05T10:50:44.444Z,994.45
2022-11-05T10:51:44.433Z,994.26
2022-11-05T10:52:44.412Z,994.39
2022-11-05T10:53:44.419Z,994.53
2022-11-05T10:54:44.460Z,994.64
2022-11-05T10:55:44.401Z,995.03
2022-11-05T10:56:44.388Z,994.92
2022-11-05T10:57:44.400Z,994.85
2022-11-05T10:58:44.388Z,994.86
2022-11-05T10:59:44.378Z,994.82
2022-11-05T11:00:44.437Z,994.76
2022-11-05T11:01:44.472Z,994.74
2022-11-05T11:02:44.364Z,994.71
2022-11-05T11:03:44.360Z,994.69
2022-11-05T11:04:44.345Z,994.68
2022-11-05T11:05:44.365Z,994.72
2022-11-05T11:06:44.344Z,994.74
2022-11-05T11:07:44.336Z,994.66
2022-11-05T11:08:44.321Z,994.67
2022-11-05T11:09:44.419Z,994.79
2022-11-05T11:10:44.321Z,994.67
2022-11-05T11:11:44.329Z,994.65
2022-11-05T11:12:44.297Z,994.78
2022-11-05T11:13:44.367Z,994.73
2022-11-05T11:14:44.295Z,994.74
2022-11-05T11:15:44.291Z,994.66
2022-11-05T11:16:44.302Z,994.63
2022-11-05T11:17:44.272Z,994.68
2022-11-05T11:18:44.291Z,994.61
2022-11-05T11:19:44.256Z,994.55
2022-11-05T11:20:44.267Z,994.66
2022-11-05T11:21:44.281Z,994.60
2022-11-05T11:22:44.243Z,994.65
2022-11-05T11:23:44.234Z,994.58
2022-11-05T11:24:44.231Z,994.56
2022-11-05T11:25:44.245Z,994.61
2022-11-05T11:26:44.210Z,994.55
2022-11-05T11:27:44.221Z,994.72
2022-11-05T11:28:44.213Z,994.56
2022-11-05T11:29:49.183Z,994.55
2022-11-05T11:30:46.192Z,994.67
2022-11-05T11:31:45.179Z,994.69
2022-11-05T11:32:44.235Z,994.60
2022-11-05T11:33:44.182Z,994.76
2022-11-05T11:34:44.172Z,994.65
2022-11-05T11:35:44.155Z,994.69
2022-11-05T11:36:44.158Z,994.64
2022-11-05T11:37:44.168Z,994.50
2022-11-05T11:38:44.190Z,994.53
2022-11-05T11:39:44.140Z,994.84
2022-11-05T11:40:44.143Z,994.68
2022-11-05T11:41:44.131Z,994.79
2022-11-05T11:42:44.124Z,994.76
2022-11-05T11:43:44.132Z,994.77
2022-11-05T11:44:44.110Z,994.77
2022-11-05T11:45:44.095Z,994.52
2022-11-05T11:46:44.095Z,994.63
2022-11-05T11:47:44.099Z,994.75
2022-11-05T11:48:44.103Z,994.75
2022-11-05T11:49:44.078Z,994.80
2022-11-05T11:50:44.069Z,994.74
2022-11-05T11:51:49.471Z,994.54
2022-11-05T11:52:45.063Z,994.15
2022-11-05T11:53:44.054Z,994.14
2022-11-05T11:54:44.052Z,994.17
2022-11-05T11:55:44.043Z,994.21
2022-11-05T11:56:44.028Z,994.13
2022-11-05T11:57:44.022Z,994.21
2022-11-05T11:58:44.025Z,994.16
2022-11-05T12:00:09.862Z,994.14
2022-11-05T12:00:46.006Z,994.14
2022-11-05T12:01:44.044Z,994.18
2022-11-05T12:02:44.815Z,994.13
2022-11-05T12:03:43.999Z,994.21
2022-11-05T12:04:43.986Z,994.16
2022-11-05T12:05:43.986Z,994.19
2022-11-05T12:06:43.962Z,994.15
2022-11-05T12:07:43.959Z,994.10
2022-11-05T12:08:45.850Z,994.20
2022-11-05T12:09:44.958Z,994.12
2022-11-05T12:10:43.941Z,994.13
2022-11-05T12:11:43.933Z,994.10
2022-11-05T12:12:43.931Z,994.16
2022-11-05T12:13:44.031Z,994.13
2022-11-05T12:14:46.677Z,994.39
2022-11-05T12:15:44.905Z,994.37
2022-11-05T12:16:43.892Z,994.34
2022-11-05T12:17:43.886Z,994.34
2022-11-05T12:18:43.889Z,994.40
2022-11-05T12:19:43.938Z,994.34
2022-11-05T12:20:45.420Z,994.38
2022-11-05T12:21:58.412Z,994.12
2022-11-05T12:22:45.867Z,994.13
2022-11-05T12:23:43.863Z,994.37
2022-11-05T12:24:43.858Z,994.34
2022-11-05T12:25:43.837Z,994.02
2022-11-05T12:26:44.846Z,994.11
2022-11-05T12:27:43.855Z,994.34
2022-11-05T12:29:12.279Z,994.33